Time;durP1;ratioP1;P1;durP2;ratioP2;P2;SDS_P1;SDS_P2;PMS_P1;PMS_P2;Temp;Humidity;BMP_temperature;BMP_pressure;BME280_temperature;BME280_humidity;BME280_pressure;Samples;Min_cycle;Max_cycle;Signal;HPM_P1;HPM_P2
2022/03/28 00:02:05;;;;;;;5.78;2.42;;;;;;;4.67;50.38;100692.81;5117065;28;20043;-72
2022/03/28 00:04:34;;;;;;;7.45;2.72;;;;;;;4.52;50.17;100689.66;5117053;28;20508;-72
2022/03/28 00:07:04;;;;;;;5.10;2.38;;;;;;;4.60;50.29;100688.31;5116763;28;20050;-72
2022/03/28 00:09:33;;;;;;;4.10;1.95;;;;;;;4.56;50.71;100692.38;5116870;27;20040;-72
2022/03/28 00:12:02;;;;;;;7.03;2.63;;;;;;;4.52;51.16;100689.66;5116839;28;20062;-74
2022/03/28 00:14:32;;;;;;;4.80;2.03;;;;;;;4.28;51.26;100691.22;5115566;28;20079;-76
2022/03/28 00:17:01;;;;;;;4.97;2.30;;;;;;;4.26;51.49;100685.25;5116303;28;20054;-76
2022/03/28 00:19:31;;;;;;;5.35;2.25;;;;;;;4.11;52.09;100679.56;5115442;28;20280;-75
2022/03/28 00:22:00;;;;;;;5.20;2.58;;;;;;;4.14;51.62;100684.75;5116731;28;20120;-75
2022/03/28 00:24:29;;;;;;;5.53;2.43;;;;;;;4.14;51.72;100679.69;5116297;28;20036;-72
2022/03/28 00:26:58;;;;;;;3.57;1.80;;;;;;;4.07;52.12;100673.53;5116386;27;20044;-72
2022/03/28 00:29:28;;;;;;;5.75;2.38;;;;;;;3.84;52.78;100680.16;5116527;28;20043;-72
2022/03/28 00:31:57;;;;;;;4.80;2.20;;;;;;;3.89;53.21;100683.72;5116285;28;20046;-72
2022/03/28 00:34:26;;;;;;;6.03;1.67;;;;;;;3.74;53.17;100678.03;5116521;28;20102;-75
2022/03/28 00:36:56;;;;;;;4.00;1.73;;;;;;;3.61;52.00;100673.28;5114938;28;20059;-75
2022/03/28 00:39:26;;;;;;;5.53;2.13;;;;;;;3.55;52.88;100662.91;5116187;28;20043;-75
2022/03/28 00:41:55;;;;;;;5.00;2.28;;;;;;;3.47;53.34;100661.72;5116054;28;20040;-76
2022/03/28 00:44:24;;;;;;;5.70;2.28;;;;;;;3.51;54.44;100671.16;5116250;28;20043;-75
2022/03/28 00:46:52;;;;;;;6.83;2.43;;;;;;;3.19;54.61;100639.47;5115955;28;20058;-76
2022/03/28 00:49:22;;;;;;;;;;;;;;;3.34;54.96;100659.47;5116828;28;20355;-75
2022/03/28 00:51:52;;;;;;;7.57;2.60;;;;;;;3.26;54.51;100661.63;5115799;28;20369;-75
2022/03/28 00:54:22;;;;;;;6.55;3.05;;;;;;;3.38;54.40;100661.34;5115675;28;20047;-75
2022/03/28 00:56:52;;;;;;;9.13;3.30;;;;;;;3.38;54.74;100656.28;5116081;28;20066;-72
2022/03/28 00:59:21;;;;;;;7.03;2.90;;;;;;;3.47;55.15;100654.16;5114537;28;20047;-72
2022/03/28 01:01:50;;;;;;;9.65;3.47;;;;;;;3.29;55.39;100646.66;5116024;28;20043;-72
2022/03/28 01:04:19;;;;;;;6.37;2.47;;;;;;;3.29;55.31;100651.69;5115501;28;20053;-72
2022/03/28 01:06:48;;;;;;;5.40;2.60;;;;;;;3.28;55.12;100651.63;5115521;28;20272;-72
2022/03/28 01:09:18;;;;;;;6.93;2.27;;;;;;;3.10;55.30;100653.34;5115416;28;20097;-72
2022/03/28 01:11:49;;;;;;;4.78;2.03;;;;;;;3.07;55.12;100643.13;5114771;28;20345;-72
2022/03/28 01:14:18;;;;;;;5.05;2.30;;;;;;;3.14;55.80;100650.19;5115346;28;20044;-71
2022/03/28 01:19:25;;;;;;;4.95;1.88;;;;;;;3.25;55.08;100648.97;5115414;28;20051;-72
2022/03/28 01:21:56;;;;;;;4.72;1.80;;;;;;;3.26;55.15;100645.66;5115518;28;20516;-71
2022/03/28 01:24:25;;;;;;;5.75;2.10;;;;;;;3.15;54.50;100649.38;5115128;28;20044;-72
2022/03/28 01:26:54;;;;;;;4.57;2.30;;;;;;;3.06;55.20;100636.34;5115121;28;20043;-72
2022/03/28 01:29:23;;;;;;;7.38;2.50;;;;;;;3.17;54.98;100635.16;5131506;27;20477;-71
2022/03/28 01:31:57;;;;;;;6.30;2.70;;;;;;;3.24;55.16;100634.63;5114167;28;20039;-72
2022/03/28 01:34:26;;;;;;;8.03;2.70;;;;;;;3.01;55.25;100622.69;5114946;28;20044;-72
2022/03/28 01:36:56;;;;;;;7.13;2.95;;;;;;;2.96;54.87;100634.22;5114998;28;20498;-75
2022/03/28 01:39:26;;;;;;;5.88;3.17;;;;;;;2.98;54.94;100632.63;5114052;28;20087;-76
2022/03/28 01:41:55;;;;;;;7.78;3.17;;;;;;;3.05;55.30;100634.59;5114900;28;20124;-72
2022/03/28 01:44:24;;;;;;;6.40;2.67;;;;;;;2.97;55.24;100626.75;5115115;28;20042;-72
2022/03/28 01:46:53;;;;;;;7.05;2.92;;;;;;;3.05;55.97;100627.03;5114724;28;20054;-72
2022/03/28 01:49:23;;;;;;;5.70;2.40;;;;;;;2.87;55.73;100623.72;5114733;28;20057;-72
2022/03/28 01:51:52;;;;;;;8.63;3.05;;;;;;;3.05;55.62;100634.59;5114645;28;20044;-72
2022/03/28 01:54:22;;;;;;;10.90;2.90;;;;;;;2.99;56.50;100629.31;5114639;28;20122;-72
2022/03/28 01:56:51;;;;;;;7.93;2.95;;;;;;;2.88;55.99;100630.50;5114652;28;20059;-75
2022/03/28 01:59:21;;;;;;;7.68;3.50;;;;;;;2.98;56.32;100628.44;5114901;28;20040;-76
2022/03/28 02:01:50;;;;;;;7.78;2.80;;;;;;;2.87;56.19;100628.75;5096287;28;20124;-76
2022/03/28 02:04:19;;;;;;;6.95;2.53;;;;;;;2.81;56.24;100618.44;5114472;28;20042;-75
2022/03/28 02:06:48;;;;;;;6.80;2.83;;;;;;;2.92;56.36;100628.19;5114900;28;20477;-75
2022/03/28 02:09:17;;;;;;;6.97;2.72;;;;;;;2.92;55.57;100625.66;5114708;28;20039;-72
2022/03/28 02:11:48;;;;;;;9.57;2.65;;;;;;;2.97;55.78;100625.88;5113200;28;20039;-71
2022/03/28 02:14:17;;;;;;;7.50;2.97;;;;;;;2.95;56.15;100630.81;5113523;28;20039;-72
2022/03/28 02:16:46;;;;;;;5.43;2.58;;;;;;;2.94;56.24;100630.75;5112995;28;20051;-72
2022/03/28 02:19:15;;;;;;;6.95;2.80;;;;;;;2.93;56.96;100629.06;5114581;28;20509;-72
2022/03/28 02:21:45;;;;;;;6.40;2.47;;;;;;;2.79;56.92;100630.06;5114238;28;20047;-72
2022/03/28 02:24:14;;;;;;;6.82;2.50;;;;;;;2.68;56.83;100630.47;5130116;27;20066;-71
2022/03/28 02:26:43;;;;;;;7.45;2.83;;;;;;;2.55;57.22;100638.25;5114267;28;20043;-75
2022/03/28 02:29:13;;;;;;;6.05;2.38;;;;;;;2.53;57.55;100627.25;5113233;28;20130;-75
2022/03/28 02:31:42;;;;;;;8.10;2.78;;;;;;;2.41;56.90;100625.78;5112812;28;20146;-72
2022/03/28 02:34:11;;;;;;;7.73;2.60;;;;;;;2.27;57.94;100617.59;5114117;28;20071;-71
2022/03/28 02:36:40;;;;;;;4.38;2.15;;;;;;;2.31;58.01;100621.97;5114206;28;20047;-72
2022/03/28 02:39:10;;;;;;;5.63;2.42;;;;;;;2.35;57.89;100618.81;5114022;28;20080;-72
2022/03/28 02:41:40;;;;;;;6.25;2.80;;;;;;;2.46;57.36;100620.19;5113521;28;20126;-72
2022/03/28 02:44:08;;;;;;;5.30;2.50;;;;;;;2.18;57.63;100586.97;5113916;28;20044;-72
2022/03/28 02:46:39;;;;;;;;;;;;;;;2.16;57.18;100607.81;5114580;28;20052;-75
2022/03/28 02:49:09;;;;;;;7.65;2.42;;;;;;;2.35;56.76;100611.25;5113979;28;20392;-76
2022/03/28 02:51:39;;;;;;;5.35;2.00;;;;;;;2.41;57.86;100609.03;5113953;28;20069;-76
2022/03/28 02:54:08;;;;;;;5.72;2.28;;;;;;;2.25;57.79;100609.13;5112702;28;20044;-76
2022/03/28 02:56:37;;;;;;;5.20;2.33;;;;;;;2.20;57.61;100604.66;5113763;28;20097;-72
2022/03/28 02:59:07;;;;;;;7.05;2.72;;;;;;;2.37;57.67;100602.13;5114108;28;20477;-75
2022/03/28 03:01:36;;;;;;;4.07;2.03;;;;;;;2.37;58.22;100604.66;5113774;28;20051;-76
2022/03/28 03:04:06;;;;;;;8.88;2.95;;;;;;;2.19;58.02;100608.81;5114085;28;20043;-76
2022/03/28 03:06:35;;;;;;;4.90;2.22;;;;;;;2.31;58.31;100604.34;5113769;28;20051;-71
2022/03/28 03:09:04;;;;;;;7.97;2.63;;;;;;;2.20;58.39;100600.47;5113624;28;20043;-75
2022/03/28 03:11:33;;;;;;;7.28;2.83;;;;;;;2.08;58.51;100597.38;5113915;28;20039;-75
2022/03/28 03:14:03;;;;;;;5.38;2.42;;;;;;;2.07;58.29;100592.25;5114003;28;20058;-75
2022/03/28 03:16:32;;;;;;;4.78;1.80;;;;;;;2.22;58.25;100590.47;5113746;28;20044;-75
2022/03/28 03:19:01;;;;;;;5.47;1.98;;;;;;;2.41;58.02;100591.41;5113936;28;20097;-75
2022/03/28 03:21:32;;;;;;;4.78;2.17;;;;;;;2.07;58.34;100567.97;5113580;28;20497;-76
2022/03/28 03:24:01;;;;;;;5.95;1.60;;;;;;;2.14;58.34;100594.28;5113593;28;20043;-75
2022/03/28 03:26:30;;;;;;;6.50;2.07;;;;;;;2.11;59.05;100595.03;5113582;28;20040;-71
2022/03/28 03:28:59;;;;;;;6.45;2.22;;;;;;;1.80;58.60;100486.97;5113410;28;20043;-75
2022/03/28 03:31:28;;;;;;;5.10;1.93;;;;;;;2.20;58.50;100585.38;5113357;28;20131;-73
2022/03/28 03:33:57;;;;;;;;;;;;;;;2.15;58.71;100586.81;5112625;28;20122;-75
2022/03/28 03:36:26;;;;;;;3.25;1.58;;;;;;;2.35;57.86;100591.09;5113431;28;19920;-76
2022/03/28 03:38:56;;;;;;;3.72;1.45;;;;;;;2.12;58.60;100589.19;5113353;28;20054;-75
2022/03/28 03:41:25;;;;;;;6.35;1.95;;;;;;;1.97;58.22;100545.66;5113439;28;20047;-75
2022/03/28 03:43:54;;;;;;;3.83;1.40;;;;;;;1.62;59.02;100595.94;5078157;28;20401;-71
2022/03/28 03:46:23;;;;;;;4.10;1.70;;;;;;;1.92;58.75;100582.34;5113346;28;20126;-71
2022/03/28 03:48:52;;;;;;;6.25;1.52;;;;;;;1.60;59.69;100582.44;5113518;28;20115;-75
2022/03/28 03:51:21;;;;;;;3.53;1.52;;;;;;;1.84;59.54;100574.44;5113184;28;20036;-75
2022/03/28 03:53:50;;;;;;;5.60;1.93;;;;;;;1.97;59.01;100573.34;5114474;28;20044;-73
2022/03/28 03:56:21;;;;;;;4.88;1.65;;;;;;;1.95;59.34;100573.28;5116947;28;20039;-75
2022/03/28 03:58:50;;;;;;;10.38;3.17;;;;;;;2.04;58.81;100580.38;5116875;28;20051;-70
2022/03/28 04:01:20;;;;;;;17.63;4.30;;;;;;;2.04;59.15;100567.81;5116808;28;20127;-73
2022/03/28 04:03:49;;;;;;;15.02;4.88;;;;;;;2.18;59.22;100576.91;5117123;28;20572;-73
2022/03/28 04:06:18;;;;;;;28.37;8.70;;;;;;;2.07;59.29;100578.03;5117368;28;20388;-74
2022/03/28 04:08:47;;;;;;;25.40;7.27;;;;;;;2.28;58.34;100571.47;5116982;28;20058;-72
2022/03/28 04:11:16;;;;;;;20.33;7.07;;;;;;;2.24;58.45;100577.16;5115643;28;20400;-70
2022/03/28 04:13:47;;;;;;;20.75;6.00;;;;;;;2.50;58.46;100566.63;5116870;28;20629;-73
2022/03/28 04:16:16;;;;;;;21.73;7.57;;;;;;;2.33;57.62;100572.53;5116593;28;20072;-71
2022/03/28 04:18:45;;;;;;;19.08;7.00;;;;;;;2.16;58.19;100573.41;5116426;28;20052;-73
2022/03/28 04:21:14;;;;;;;16.98;6.35;;;;;;;2.05;58.79;100579.59;5116400;28;20047;-70
2022/03/28 04:23:43;;;;;;;17.75;6.00;;;;;;;1.98;58.82;100578.47;5116740;28;20036;-70
2022/03/28 04:26:12;;;;;;;17.30;5.53;;;;;;;2.04;59.10;100580.38;5116785;27;20075;-73
2022/03/28 04:28:42;;;;;;;10.20;4.10;;;;;;;1.93;59.11;100584.06;5115640;28;20074;-73
2022/03/28 04:31:12;;;;;;;8.88;4.32;;;;;;;1.89;59.91;100582.19;5116078;28;20345;-73
2022/03/28 04:33:41;;;;;;;25.80;10.13;;;;;;;1.79;59.71;100577.50;5116248;28;20051;-70
2022/03/28 04:36:10;;;;;;;15.13;6.45;;;;;;;1.67;59.97;100584.47;5116428;28;20513;-71
2022/03/28 04:38:39;;;;;;;11.90;4.83;;;;;;;1.61;59.86;100589.19;5116422;28;20105;-73
2022/03/28 04:41:08;;;;;;;23.65;6.70;;;;;;;1.62;59.96;100585.88;5115973;28;20040;-72
2022/03/28 04:43:36;;;;;;;23.97;9.00;;;;;;;1.62;60.18;100590.91;5116459;28;20032;-72
2022/03/28 04:46:05;;;;;;;19.42;8.57;;;;;;;1.52;60.14;100586.22;5115653;28;20039;-72
2022/03/28 04:48:36;;;;;;;21.65;6.93;;;;;;;1.56;60.53;100588.94;5115965;28;20039;-72
2022/03/28 04:51:06;;;;;;;16.10;5.85;;;;;;;1.63;60.18;100585.94;5115844;28;20055;-72
2022/03/28 04:53:34;;;;;;;;;;;;;;;1.68;59.54;100591.22;5115795;28;20043;-72
2022/03/28 04:56:04;;;;;;;13.55;3.80;;;;;;;1.73;60.41;100592.28;5115660;28;20030;-70
2022/03/28 04:58:33;;;;;;;16.33;4.18;;;;;;;1.79;60.17;100585.06;5115960;27;20040;-71
2022/03/28 05:01:08;;;;;;;8.27;3.65;;;;;;;2.07;59.79;100585.56;5115543;28;20047;-72
2022/03/28 05:03:39;;;;;;;11.07;4.05;;;;;;;2.23;59.27;100590.53;5081519;28;20066;-71
2022/03/28 05:06:08;;;;;;;9.18;3.42;;;;;;;2.48;58.09;100585.84;5115120;28;20052;-72
2022/03/28 05:08:37;;;;;;;7.55;2.83;;;;;;;2.44;58.24;100589.03;5115763;28;20035;-72
2022/03/28 05:11:06;;;;;;;5.97;2.93;;;;;;;2.51;58.62;100593.56;5115371;27;20039;-71
2022/03/28 05:13:35;;;;;;;4.80;1.97;;;;;;;2.71;56.93;100587.75;5115294;28;20050;-72
2022/03/28 05:16:04;;;;;;;7.90;3.43;;;;;;;2.78;56.93;100590.56;5115192;28;20493;-72
2022/03/28 05:18:33;;;;;;;10.30;3.17;;;;;;;3.01;55.91;100597.47;5115139;28;20044;-70
2022/03/28 05:21:04;;;;;;;5.47;2.35;;;;;;;3.23;55.73;100597.59;5115210;28;20035;-71
2022/03/28 05:23:34;;;;;;;7.43;2.47;;;;;;;3.34;55.13;100589.69;5115198;27;20493;-73
2022/03/28 05:26:03;;;;;;;9.50;2.25;;;;;;;3.25;55.94;100596.88;5115156;28;20055;-71
2022/03/28 05:28:32;;;;;;;4.90;1.95;;;;;;;3.23;55.81;100585.88;5115133;28;20035;-71
2022/03/28 05:31:01;;;;;;;3.38;1.65;;;;;;;3.37;56.49;100588.97;5115240;28;20489;-73
2022/03/28 05:33:30;;;;;;;8.98;3.22;;;;;;;3.44;55.79;100590.94;5113725;28;20031;-73
2022/03/28 05:36:00;;;;;;;11.10;3.75;;;;;;;3.51;56.63;100592.06;5114918;28;20044;-73
2022/03/28 05:38:30;;;;;;;9.80;3.00;;;;;;;3.67;56.02;100589.38;5115244;28;20031;-72
2022/03/28 05:40:59;;;;;;;7.35;3.65;;;;;;;3.94;55.59;100591.34;5114910;28;20134;-71
2022/03/28 05:43:28;;;;;;;7.10;2.33;;;;;;;4.13;53.92;100575.25;5114775;28;20047;-72
2022/03/28 05:45:57;;;;;;;6.15;2.63;;;;;;;4.25;52.70;100579.94;5113826;28;20043;-71
2022/03/28 05:48:26;;;;;;;9.27;3.03;;;;;;;4.30;52.56;100586.00;5114744;28;20040;-71
2022/03/28 05:50:55;;;;;;;8.30;2.92;;;;;;;4.61;51.84;100583.84;5114978;28;20043;-70
2022/03/28 05:53:24;;;;;;;8.45;3.50;;;;;;;4.86;52.20;100589.03;5113317;28;20047;-73
2022/03/28 05:55:55;;;;;;;9.03;3.60;;;;;;;5.18;51.70;100588.47;5113621;28;20035;-71
2022/03/28 05:58:24;;;;;;;10.05;3.35;;;;;;;5.42;51.10;100579.22;5114613;28;20078;-72
2022/03/28 06:00:53;;;;;;;6.97;3.63;;;;;;;5.53;51.03;100579.59;5114468;28;20046;-72
2022/03/28 06:03:23;;;;;;;13.93;4.43;;;;;;;5.69;49.98;100568.28;5114449;28;20047;-71
2022/03/28 06:06:04;;;;;;;7.13;3.15;;;;;;;5.79;48.84;100570.31;5114766;28;20040;-71
2022/03/28 06:08:33;;;;;;;;;;;;;;;5.85;48.35;100565.50;5115055;28;20374;-72
2022/03/28 06:11:04;;;;;;;6.68;2.58;;;;;;;6.00;48.06;100565.97;5114302;28;19927;-72
2022/03/28 06:13:33;;;;;;;6.05;2.92;;;;;;;6.11;47.81;100556.16;5114148;28;20036;-73
2022/03/28 06:16:05;;;;;;;4.72;2.60;;;;;;;6.26;47.85;100552.44;5114081;28;20137;-71
2022/03/28 06:18:34;;;;;;;11.43;3.22;;;;;;;6.73;47.48;100566.50;5113980;28;20553;-72
2022/03/28 06:21:03;;;;;;;8.73;2.88;;;;;;;6.91;46.53;100563.66;5113245;28;20123;-71
2022/03/28 06:23:32;;;;;;;8.45;3.20;;;;;;;7.18;45.43;100561.84;5114089;28;20043;-72
2022/03/28 06:26:01;;;;;;;8.27;3.30;;;;;;;7.40;45.32;100553.97;5114452;28;20101;-71
2022/03/28 06:28:31;;;;;;;4.38;2.22;;;;;;;7.33;43.81;100552.09;5114033;28;20052;-71
2022/03/28 06:31:01;;;;;;;6.38;2.58;;;;;;;7.18;43.36;100562.72;5114371;28;20121;-71
2022/03/28 06:33:30;;;;;;;7.13;2.17;;;;;;;7.14;43.19;100554.97;5113939;28;20043;-72
2022/03/28 06:35:59;;;;;;;6.83;2.27;;;;;;;7.31;43.60;100541.06;5114100;28;20051;-71
2022/03/28 06:38:29;;;;;;;9.10;2.65;;;;;;;7.44;42.68;100550.69;5091038;28;20509;-71
2022/03/28 06:40:58;;;;;;;10.50;2.97;;;;;;;7.48;43.48;100542.34;5093470;28;20074;-72
2022/03/28 06:43:27;;;;;;;11.65;2.90;;;;;;;7.71;42.69;100543.78;5074392;28;20127;-72
2022/03/28 06:45:59;;;;;;;5.15;1.98;;;;;;;7.75;42.80;100550.63;5073309;28;20044;-70
2022/03/28 06:48:28;;;;;;;5.30;2.40;;;;;;;8.18;42.95;100546.59;5073641;28;20043;-72
2022/03/28 06:51:02;;;;;;;9.85;2.90;;;;;;;8.22;42.69;100543.28;5073214;28;20132;-73
2022/03/28 06:53:33;;;;;;;5.18;2.55;;;;;;;8.51;41.92;100545.66;5073265;28;20072;-71
2022/03/28 06:56:02;;;;;;;6.28;2.60;;;;;;;8.53;42.49;100550.78;5086950;28;20052;-71
2022/03/28 06:58:32;;;;;;;6.50;2.30;;;;;;;8.66;41.91;100550.22;5093930;28;20382;-72
2022/03/28 07:01:02;;;;;;;5.30;2.78;;;;;;;8.69;41.28;100545.19;5086892;28;20061;-70
2022/03/28 07:03:32;;;;;;;6.72;3.00;;;;;;;8.99;41.30;100540.72;5093154;28;20037;-71
2022/03/28 07:06:01;;;;;;;6.15;2.85;;;;;;;9.50;40.54;100539.94;5093987;28;20101;-71
2022/03/28 07:08:30;;;;;;;4.38;2.20;;;;;;;9.66;40.68;100547.03;5093082;28;20413;-71
2022/03/28 07:10:59;;;;;;;6.60;2.55;;;;;;;9.32;39.56;100550.66;5086599;28;20113;-72
2022/03/28 07:13:29;;;;;;;6.70;2.78;;;;;;;9.62;38.42;100535.06;5090377;28;20055;-72
2022/03/28 07:15:58;;;;;;;4.53;1.92;;;;;;;9.76;39.20;100538.69;5097152;28;20048;-70
2022/03/28 07:18:28;;;;;;;7.17;2.97;;;;;;;10.15;38.72;100541.88;5087513;28;20040;-70
2022/03/28 07:20:57;;;;;;;7.63;2.70;;;;;;;10.09;38.17;100546.88;5093022;28;20372;-71
2022/03/28 07:23:30;;;;;;;6.68;2.50;;;;;;;10.15;38.35;100534.22;5086552;28;20052;-70
2022/03/28 07:25:59;;;;;;;6.67;2.67;;;;;;;10.48;38.11;100539.81;5093338;28;20068;-71
2022/03/28 07:28:29;;;;;;;5.03;2.37;;;;;;;10.56;37.35;100537.34;5095068;28;20048;-71
2022/03/28 07:30:58;;;;;;;6.63;2.65;;;;;;;10.65;37.20;100538.31;5097098;28;20520;-72
2022/03/28 07:33:29;;;;;;;5.43;2.27;;;;;;;10.94;37.48;100530.19;5097205;28;20393;-71
2022/03/28 07:35:58;;;;;;;6.70;2.30;;;;;;;10.97;36.94;100525.94;5097206;28;20040;-70
2022/03/28 07:38:27;;;;;;;7.93;2.35;;;;;;;11.18;36.23;100515.13;5096816;28;20040;-71
2022/03/28 07:40:56;;;;;;;6.22;2.47;;;;;;;11.72;36.77;100515.63;5097232;28;20032;-72
2022/03/28 07:43:25;;;;;;;4.55;2.80;;;;;;;12.05;35.67;100518.44;5096754;28;20044;-71
2022/03/28 07:45:55;;;;;;;7.43;2.72;;;;;;;12.21;35.34;100515.97;5097401;28;20052;-71
2022/03/28 07:48:24;;;;;;;4.83;2.37;;;;;;;12.27;34.96;100500.66;5096934;28;20036;-70
2022/03/28 07:50:55;;;;;;;4.85;2.40;;;;;;;12.60;34.97;100500.81;5096676;28;20684;-70
2022/03/28 07:53:25;;;;;;;4.85;2.58;;;;;;;12.55;34.52;100493.13;5096597;28;20145;-70
2022/03/28 07:55:54;;;;;;;7.20;3.25;;;;;;;12.70;35.06;100502.56;5097197;28;20084;-72
2022/03/28 07:58:24;;;;;;;6.53;2.73;;;;;;;12.60;35.00;100500.81;5090953;28;20393;-74
2022/03/28 08:00:53;;;;;;;7.35;2.70;;;;;;;13.25;34.75;100491.66;5096406;28;20489;-72
2022/03/28 08:03:24;;;;;;;7.25;2.83;;;;;;;13.38;33.63;100479.69;5096675;28;20036;-71
2022/03/28 08:05:55;;;;;;;5.47;2.22;;;;;;;13.40;33.37;100478.84;5096337;28;20069;-73
2022/03/28 08:08:25;;;;;;;5.53;2.42;;;;;;;13.46;33.00;100479.72;5096401;28;20052;-72
2022/03/28 08:10:54;;;;;;;9.17;2.83;;;;;;;13.65;32.67;100479.72;5096277;28;20044;-71
2022/03/28 08:13:23;;;;;;;4.70;2.40;;;;;;;13.68;32.33;100479.69;5089991;28;20119;-73
2022/03/28 08:15:52;;;;;;;6.53;2.80;;;;;;;13.76;32.38;100469.44;5096182;28;20059;-73
2022/03/28 08:18:21;;;;;;;5.10;2.55;;;;;;;13.78;32.25;100460.00;5096022;28;20344;-72
2022/03/28 08:20:50;;;;;;;5.83;3.50;;;;;;;13.92;32.24;100473.69;5095839;28;20119;-73
2022/03/28 08:23:21;;;;;;;4.40;2.57;;;;;;;14.64;32.33;100468.34;5096027;28;20118;-73
2022/03/28 08:25:51;;;;;;;7.95;3.50;;;;;;;14.65;31.55;100457.22;5096275;28;20101;-72
2022/03/28 08:28:21;;;;;;;5.72;3.20;;;;;;;14.51;31.39;100456.44;5095858;28;20048;-71
2022/03/28 08:30:49;;;;;;;;;;;;;;;14.88;31.66;100446.81;5095388;28;20051;-72
2022/03/28 08:33:18;;;;;;;7.22;3.17;;;;;;;15.00;31.05;100446.72;5093912;28;19994;-71
2022/03/28 08:35:47;;;;;;;7.47;3.17;;;;;;;14.67;32.69;100437.50;5096162;28;20068;-72
2022/03/28 08:38:16;;;;;;;6.68;2.67;;;;;;;14.82;32.75;100440.84;5095671;28;20494;-71
2022/03/28 08:40:48;;;;;;;;;;;;;;;15.12;32.14;100438.06;5094337;28;20072;-72
2022/03/28 08:43:21;;;;;;;6.63;3.20;;;;;;;15.59;32.09;100442.91;5096009;28;19989;-72
2022/03/28 08:45:51;;;;;;;12.40;3.72;;;;;;;15.54;32.44;100435.22;5095516;28;20055;-72
2022/03/28 08:48:20;;;;;;;7.60;3.25;;;;;;;16.07;32.15;100432.97;5095586;28;20505;-73
2022/03/28 08:50:50;;;;;;;4.43;2.58;;;;;;;15.92;32.15;100428.00;5095482;28;20044;-71
2022/03/28 08:53:19;;;;;;;8.02;3.63;;;;;;;16.34;31.58;100420.66;5089548;28;20040;-70
2022/03/28 08:55:50;;;;;;;8.98;3.30;;;;;;;16.09;30.92;100420.94;5085787;28;20040;-71
2022/03/28 08:58:19;;;;;;;6.70;3.30;;;;;;;16.26;31.11;100423.31;5095674;28;20402;-73
2022/03/28 09:00:49;;;;;;;7.43;3.47;;;;;;;16.36;31.15;100412.03;5054117;28;20040;-72
2022/03/28 09:03:19;;;;;;;7.45;3.42;;;;;;;16.62;30.14;100406.56;5087314;28;20069;-72
2022/03/28 09:05:50;;;;;;;7.68;3.80;;;;;;;16.61;30.44;100410.00;5094526;28;20036;-73
2022/03/28 09:08:25;;;;;;;6.55;3.45;;;;;;;16.87;30.21;100413.06;5091717;28;20044;-73
2022/03/28 09:10:56;;;;;;;8.05;3.60;;;;;;;17.28;30.22;100415.88;5091905;28;20046;-73
2022/03/28 09:13:26;;;;;;;21.35;5.38;;;;;;;17.52;30.64;100403.44;5094995;28;20505;-73
2022/03/28 09:15:57;;;;;;;8.43;3.67;;;;;;;17.14;30.30;100417.81;5094015;28;20052;-72
2022/03/28 09:18:29;;;;;;;8.25;3.40;;;;;;;17.05;30.04;100412.81;5083490;28;20579;-71
2022/03/28 09:21:03;;;;;;;7.38;3.67;;;;;;;16.98;30.02;100376.81;5074611;28;20068;-72
2022/03/28 09:23:41;;;;;;;6.13;3.25;;;;;;;17.10;30.56;100408.44;5075506;28;20040;-72
2022/03/28 09:26:18;;;;;;;7.05;3.45;;;;;;;17.65;31.31;100400.66;5094522;28;20049;-71
2022/03/28 09:28:49;;;;;;;7.20;3.20;;;;;;;17.58;30.92;100398.19;5084160;28;20105;-71
2022/03/28 09:31:24;;;;;;;6.22;3.67;;;;;;;17.57;30.32;100401.66;5094790;28;20164;-72
2022/03/28 09:34:10;;;;;;;5.70;3.10;;;;;;;17.38;29.11;100396.78;5094806;28;20072;-72
2022/03/28 09:36:45;;;;;;;5.03;2.50;;;;;;;17.62;28.46;100374.03;5088781;28;20044;-72
2022/03/28 09:39:17;;;;;;;10.43;3.13;;;;;;;18.05;27.50;100380.06;5090075;28;20044;-70
2022/03/28 09:42:00;;;;;;;6.00;3.05;;;;;;;18.56;26.96;100376.44;5094869;28;20044;-72
2022/03/28 09:44:37;;;;;;;5.30;2.67;;;;;;;18.40;25.54;100371.59;5093494;28;20494;-72
2022/03/28 09:47:11;;;;;;;6.75;3.53;;;;;;;18.34;26.19;100366.56;5094639;28;20428;-70
2022/03/28 09:49:43;;;;;;;7.00;2.92;;;;;;;18.30;25.79;100360.63;5094781;28;20076;-72
2022/03/28 09:52:13;;;;;;;6.50;3.05;;;;;;;18.61;26.51;100371.16;5086629;28;20051;-72
2022/03/28 09:54:49;;;;;;;7.35;3.60;;;;;;;18.83;25.83;100361.19;5080365;28;20044;-71
2022/03/28 09:57:22;;;;;;;5.93;2.97;;;;;;;19.21;26.26;100355.94;5088819;28;20033;-72
2022/03/28 09:59:52;;;;;;;6.43;3.17;;;;;;;19.46;25.44;100354.44;5074046;28;20048;-70
2022/03/28 10:02:24;;;;;;;7.03;3.70;;;;;;;19.46;24.82;100338.06;5073538;28;20558;-72
2022/03/28 10:04:56;;;;;;;7.88;3.97;;;;;;;19.23;25.04;100346.38;5073718;28;20044;-72
2022/03/28 10:07:25;;;;;;;6.28;3.30;;;;;;;19.32;23.81;100334.06;5074119;28;20041;-70
2022/03/28 10:09:58;;;;;;;6.38;3.75;;;;;;;19.44;25.69;100335.50;5072975;28;20479;-70
2022/03/28 10:12:29;;;;;;;6.47;3.50;;;;;;;20.05;24.00;100335.53;5073552;28;20473;-71
2022/03/28 10:15:00;;;;;;;5.95;3.42;;;;;;;19.71;22.02;100316.63;5073602;28;20407;-71
2022/03/28 10:17:32;;;;;;;7.80;3.72;;;;;;;19.52;24.03;100325.81;5073886;28;20487;-71
2022/03/28 10:20:08;;;;;;;6.32;3.53;;;;;;;19.76;24.54;100314.78;5083434;28;20047;-72
2022/03/28 10:23:00;;;;;;;7.68;3.83;;;;;;;19.50;22.90;100314.63;5073642;28;20036;-71
2022/03/28 10:25:29;;;;;;;5.95;3.78;;;;;;;19.17;23.63;100315.50;5073647;28;20044;-72
2022/03/28 10:28:01;;;;;;;4.47;2.88;;;;;;;19.13;21.75;100313.84;5092062;28;20039;-71
2022/03/28 10:30:30;;;;;;;5.90;3.20;;;;;;;19.25;22.68;100308.38;5093821;28;20055;-72
2022/03/28 10:33:11;;;;;;;6.85;3.13;;;;;;;19.18;23.30;100301.66;5093627;28;20075;-71
2022/03/28 10:35:40;;;;;;;7.47;4.05;;;;;;;19.38;23.81;100289.94;5093588;28;20040;-71
2022/03/28 10:38:24;;;;;;;6.40;3.28;;;;;;;19.74;23.18;100285.47;5092287;28;20089;-72
2022/03/28 10:40:58;;;;;;;6.10;3.40;;;;;;;19.69;23.70;100274.41;5073294;28;20051;-72
2022/03/28 10:43:33;;;;;;;5.20;2.88;;;;;;;20.06;23.45;100275.00;5073770;28;20051;-71
2022/03/28 10:46:04;;;;;;;6.05;3.05;;;;;;;20.28;22.47;100269.19;5073681;28;20037;-71
2022/03/28 10:48:39;;;;;;;5.90;3.63;;;;;;;20.44;23.21;100266.09;5089831;28;20066;-71
2022/03/28 10:51:10;;;;;;;6.60;3.30;;;;;;;19.95;22.54;100271.91;5090789;28;20153;-71
2022/03/28 10:53:41;;;;;;;5.50;3.00;;;;;;;19.95;22.72;100266.72;5093240;28;20075;-71
2022/03/28 10:56:17;;;;;;;6.00;3.45;;;;;;;19.83;23.41;100261.03;5093761;28;20123;-70
2022/03/28 10:59:09;;;;;;;7.47;3.55;;;;;;;20.12;22.44;100257.56;5093677;28;20047;-70
2022/03/28 11:01:39;;;;;;;7.68;3.95;;;;;;;20.24;24.46;100249.47;5091176;28;20131;-71
2022/03/28 11:04:20;;;;;;;6.63;3.63;;;;;;;20.64;24.20;100242.09;5096505;28;20071;-70
2022/03/28 11:06:59;;;;;;;6.70;3.58;;;;;;;20.50;24.49;100244.31;5097510;28;20051;-71
2022/03/28 11:09:56;;;;;;;7.18;3.78;;;;;;;20.51;25.11;100236.50;5096315;28;20043;-72
2022/03/28 11:12:30;;;;;;;6.35;3.17;;;;;;;20.63;25.77;100236.09;5097542;28;20516;-72
2022/03/28 11:15:05;;;;;;;10.43;4.25;;;;;;;20.99;27.64;100227.97;5097345;28;20044;-72
2022/03/28 11:17:37;;;;;;;7.57;4.22;;;;;;;21.36;27.65;100228.38;5096145;28;20056;-71
2022/03/28 11:20:12;;;;;;;7.20;4.50;;;;;;;21.11;28.61;100218.03;5097227;28;20097;-72
2022/03/28 11:22:48;;;;;;;6.53;4.18;;;;;;;21.18;28.49;100209.13;5090584;28;20045;-72
2022/03/28 11:25:32;;;;;;;7.43;4.10;;;;;;;21.66;28.27;100210.84;5097318;28;20044;-71
2022/03/28 11:28:05;;;;;;;7.97;4.13;;;;;;;21.68;28.56;100212.47;5096591;28;20493;-73
2022/03/28 11:30:40;;;;;;;8.45;4.75;;;;;;;21.50;27.86;100192.34;5096386;28;20097;-71
2022/03/28 11:33:14;;;;;;;10.55;4.55;;;;;;;21.09;27.65;100196.44;5096192;28;20059;-72
2022/03/28 11:35:55;;;;;;;7.38;4.13;;;;;;;21.26;27.77;100191.50;5096599;28;20055;-72
2022/03/28 11:38:26;;;;;;;10.02;4.30;;;;;;;21.10;27.68;100179.97;5097399;28;20044;-72
2022/03/28 11:40:56;;;;;;;8.63;3.97;;;;;;;21.16;27.76;100165.94;5096831;28;20581;-71
2022/03/28 11:43:33;;;;;;;7.80;4.30;;;;;;;21.70;27.49;100170.81;5095581;28;20083;-70
2022/03/28 11:46:12;;;;;;;8.27;4.18;;;;;;;21.62;27.86;100168.50;5096697;28;20105;-72
2022/03/28 11:48:56;;;;;;;7.18;4.10;;;;;;;21.26;29.13;100160.34;5097139;28;20040;-72
2022/03/28 11:51:27;;;;;;;7.28;3.90;;;;;;;21.15;28.35;100151.25;5097053;28;20044;-71